Time;durP1;ratioP1;P1;durP2;ratioP2;P2;SDS_P1;SDS_P2;PMS_P1;PMS_P2;Temp;Humidity;BMP_temperature;BMP_pressure;BME280_temperature;BME280_humidity;BME280_pressure;Samples;Min_cycle;Max_cycle;Signal;HPM_P1;HPM_P2
2022/01/09 00:01:29;;;;;;;4.72;4.32;;;4.50;99.90;;;;;;5103138;28;20047;-58
2022/01/09 00:03:55;;;;;;;4.82;4.43;;;4.50;99.90;;;;;;5090684;28;20056;-56
2022/01/09 00:06:21;;;;;;;5.05;4.60;;;4.50;99.90;;;;;;5090305;28;20032;-58
2022/01/09 00:08:46;;;;;;;5.53;4.80;;;4.50;99.90;;;;;;5090260;28;20036;-57
2022/01/09 00:11:17;;;;;;;4.80;4.40;;;4.50;99.90;;;;;;5072353;28;20047;-58
2022/01/09 00:13:43;;;;;;;4.63;4.22;;;4.50;99.90;;;;;;5072142;28;20438;-58
2022/01/09 00:16:08;;;;;;;4.13;3.77;;;4.50;99.90;;;;;;5090263;28;20115;-58
2022/01/09 00:18:34;;;;;;;4.27;3.93;;;4.50;99.90;;;;;;5072180;28;20107;-58
2022/01/09 00:21:05;;;;;;;4.57;4.17;;;4.50;99.90;;;;;;5090427;28;20083;-58
2022/01/09 00:23:33;;;;;;;3.83;3.47;;;4.50;99.90;;;;;;5090256;28;20051;-58
2022/01/09 00:25:59;;;;;;;4.03;3.50;;;4.60;99.90;;;;;;5090046;28;20118;-57
2022/01/09 00:28:25;;;;;;;;;;;4.60;99.90;;;;;;5072328;28;20522;-58
2022/01/09 00:30:50;;;;;;;4.35;3.95;;;4.60;99.90;;;;;;5090005;28;19920;-58
2022/01/09 00:33:16;;;;;;;4.13;3.83;;;4.60;99.90;;;;;;5091589;28;20040;-58
2022/01/09 00:35:41;;;;;;;3.40;3.20;;;4.60;99.90;;;;;;5091412;28;20043;-58
2022/01/09 00:38:07;;;;;;;4.40;4.00;;;4.60;99.90;;;;;;5108580;28;20031;-57
2022/01/09 00:40:33;;;;;;;4.20;3.90;;;4.60;99.90;;;;;;5097418;28;20032;-58
2022/01/09 00:42:58;;;;;;;4.57;4.17;;;4.60;99.90;;;;;;5104463;28;20040;-58
2022/01/09 00:45:24;;;;;;;4.70;4.20;;;4.60;99.90;;;;;;5099393;28;20040;-58
2022/01/09 00:47:49;;;;;;;4.03;3.73;;;4.60;99.90;;;;;;5091045;28;20123;-58
2022/01/09 00:50:15;;;;;;;4.07;3.77;;;4.50;99.90;;;;;;5097178;28;20062;-57
2022/01/09 00:52:41;;;;;;;4.90;4.50;;;4.50;99.90;;;;;;5095495;28;20040;-59
2022/01/09 00:55:07;;;;;;;4.10;3.80;;;4.50;99.90;;;;;;5078168;28;20043;-58
2022/01/09 00:57:33;;;;;;;;;;;4.50;99.90;;;;;;5101831;28;20088;-57
2022/01/09 00:59:59;;;;;;;4.13;3.83;;;4.50;99.90;;;;;;5098147;28;19916;-57
2022/01/09 01:02:25;;;;;;;4.57;4.25;;;4.50;99.90;;;;;;5106153;28;20044;-58
2022/01/09 01:04:51;;;;;;;5.45;4.93;;;4.50;99.90;;;;;;5097337;28;20145;-58
2022/01/09 01:07:19;;;;;;;6.05;5.55;;;4.50;99.90;;;;;;5107465;28;20032;-59
2022/01/09 01:09:45;;;;;;;5.32;4.82;;;4.50;99.90;;;;;;5098277;28;20042;-58
2022/01/09 01:12:10;;;;;;;5.78;5.30;;;4.50;99.90;;;;;;5102196;28;20443;-58
2022/01/09 01:14:37;;;;;;;5.97;5.43;;;4.50;99.90;;;;;;5102256;28;20042;-58
2022/01/09 01:17:03;;;;;;;6.53;6.03;;;4.50;99.90;;;;;;5111045;28;20282;-58
2022/01/09 01:19:28;;;;;;;5.53;5.13;;;4.50;99.90;;;;;;5109906;28;20099;-59
2022/01/09 01:21:54;;;;;;;6.23;5.73;;;4.50;99.90;;;;;;5093196;28;20524;-58
2022/01/09 01:24:21;;;;;;;6.40;5.80;;;4.50;99.90;;;;;;5102116;28;20032;-59
2022/01/09 01:26:47;;;;;;;7.00;6.25;;;4.50;99.90;;;;;;5111927;28;20075;-58
2022/01/09 01:29:12;;;;;;;6.57;5.97;;;4.50;99.90;;;;;;5104537;28;20070;-58
2022/01/09 01:31:38;;;;;;;7.17;6.57;;;4.50;99.90;;;;;;5099572;28;20047;-58
2022/01/09 01:34:04;;;;;;;7.50;6.77;;;4.50;99.90;;;;;;5100309;28;20040;-58
2022/01/09 01:36:29;;;;;;;7.60;6.90;;;4.50;99.90;;;;;;5111900;28;20309;-58
2022/01/09 01:38:55;;;;;;;8.47;7.70;;;4.50;99.90;;;;;;5114184;28;20400;-58
2022/01/09 01:41:20;;;;;;;8.47;7.70;;;4.50;99.90;;;;;;5087167;28;20492;-58
2022/01/09 01:43:46;;;;;;;9.60;8.80;;;4.50;99.90;;;;;;5115338;28;20048;-58
2022/01/09 01:46:12;;;;;;;8.80;8.00;;;4.50;99.90;;;;;;5086024;28;20027;-58
2022/01/09 01:48:38;;;;;;;9.75;8.85;;;4.50;99.90;;;;;;5110202;28;20044;-59
2022/01/09 01:51:04;;;;;;;10.57;9.57;;;4.50;99.90;;;;;;5100230;28;20381;-55
2022/01/09 01:53:30;;;;;;;11.52;10.52;;;4.50;99.90;;;;;;5094774;28;20044;-56
2022/01/09 01:55:56;;;;;;;12.82;11.73;;;4.50;99.90;;;;;;5107549;28;20045;-57
2022/01/09 01:58:24;;;;;;;13.07;11.77;;;4.50;99.90;;;;;;5093994;28;20067;-54
2022/01/09 02:00:50;;;;;;;14.43;12.93;;;4.50;99.90;;;;;;5086354;28;20477;-57
2022/01/09 02:03:15;;;;;;;16.77;15.07;;;4.50;99.90;;;;;;5092780;28;20066;-57
2022/01/09 02:05:45;;;;;;;16.73;15.23;;;4.50;99.90;;;;;;5092349;28;20044;-54
2022/01/09 02:08:12;;;;;;;18.55;16.75;;;4.50;99.90;;;;;;5092447;28;20319;-57
2022/01/09 02:10:42;;;;;;;18.35;16.58;;;4.50;99.90;;;;;;5092746;28;20072;-56
2022/01/09 02:13:08;;;;;;;18.95;17.10;;;4.50;99.90;;;;;;5074782;28;20044;-55
2022/01/09 02:15:45;;;;;;;18.60;16.75;;;4.50;99.90;;;;;;5092534;28;20043;-54
2022/01/09 02:18:19;;;;;;;19.85;17.75;;;4.50;99.90;;;;;;5092625;28;20032;-55
2022/01/09 02:20:46;;;;;;;21.33;19.08;;;4.50;99.90;;;;;;5092181;28;20040;-57
2022/01/09 02:23:12;;;;;;;20.90;18.77;;;4.60;99.90;;;;;;5092704;28;20476;-58
2022/01/09 02:25:38;;;;;;;;;;;4.60;99.90;;;;;;5092685;28;20606;-55
2022/01/09 02:28:05;;;;;;;24.08;19.73;;;4.60;99.90;;;;;;5092080;28;19968;-55
2022/01/09 02:30:32;;;;;;;20.60;18.40;;;4.60;99.90;;;;;;5092119;28;20044;-57
2022/01/09 02:33:06;;;;;;;20.52;17.67;;;4.60;99.90;;;;;;5092566;28;20047;-55
2022/01/09 02:35:33;;;;;;;19.98;17.42;;;4.60;99.90;;;;;;5071121;28;20073;-54
2022/01/09 02:37:58;;;;;;;;;;;4.60;99.90;;;;;;5071719;28;20052;-56
2022/01/09 02:40:24;;;;;;;18.33;16.35;;;4.60;99.90;;;;;;5053703;28;19939;-56
2022/01/09 02:42:51;;;;;;;15.07;13.57;;;4.60;99.90;;;;;;5071117;28;20086;-56
2022/01/09 02:45:22;;;;;;;15.10;13.50;;;4.60;99.90;;;;;;5052753;28;20040;-56
2022/01/09 02:47:51;;;;;;;16.80;13.85;;;4.60;99.90;;;;;;5070815;28;20041;-56
2022/01/09 02:53:00;;;;;;;14.43;13.00;;;4.70;99.90;;;;;;5082185;28;20108;-58
2022/01/09 02:55:27;;;;;;;14.23;12.70;;;4.70;99.90;;;;;;5072989;28;20153;-59
2022/01/09 02:57:58;;;;;;;17.33;13.98;;;4.70;99.90;;;;;;5071397;28;20052;-58
2022/01/09 03:00:27;;;;;;;15.35;13.75;;;4.70;99.90;;;;;;5052746;28;20385;-58
2022/01/09 03:02:53;;;;;;;13.38;11.88;;;4.70;99.90;;;;;;5070700;28;20512;-58
2022/01/09 03:05:19;;;;;;;17.05;13.88;;;4.70;99.90;;;;;;5052727;28;20032;-58
2022/01/09 03:07:45;;;;;;;17.63;14.80;;;4.70;99.90;;;;;;5070897;28;20045;-58
2022/01/09 03:10:13;;;;;;;18.95;15.07;;;4.70;99.90;;;;;;5052255;28;20098;-58
2022/01/09 03:12:39;;;;;;;18.55;13.70;;;4.70;99.90;;;;;;5070356;28;20040;-58
2022/01/09 03:15:06;;;;;;;;;;;4.70;99.90;;;;;;5070222;28;20452;-58
2022/01/09 03:17:32;;;;;;;19.73;14.48;;;4.70;99.90;;;;;;5070923;28;20312;-58
2022/01/09 03:19:57;;;;;;;20.27;15.45;;;4.80;99.90;;;;;;5070984;28;20223;-58
2022/01/09 03:22:23;;;;;;;19.90;15.33;;;4.70;99.90;;;;;;5070852;28;20518;-58
2022/01/09 03:24:49;;;;;;;19.67;15.53;;;4.70;99.90;;;;;;5070256;28;20036;-58
2022/01/09 03:27:15;;;;;;;20.02;13.93;;;4.70;99.90;;;;;;5052757;28;20079;-58
2022/01/09 03:29:41;;;;;;;;;;;4.80;99.90;;;;;;5081446;28;20048;-57
2022/01/09 03:32:08;;;;;;;17.75;10.07;;;4.80;99.90;;;;;;5105679;28;19916;-58
2022/01/09 03:34:34;;;;;;;18.63;10.48;;;4.80;99.90;;;;;;5092262;28;20036;-58
2022/01/09 03:37:00;;;;;;;19.40;11.00;;;4.90;99.90;;;;;;5099737;28;20036;-58
2022/01/09 03:39:25;;;;;;;15.53;9.03;;;4.90;99.90;;;;;;5093911;28;20043;-58
2022/01/09 03:41:51;;;;;;;16.13;9.27;;;5.00;99.90;;;;;;5105945;28;20123;-58
2022/01/09 03:44:17;;;;;;;20.30;9.13;;;5.00;99.90;;;;;;5105067;28;20103;-58
2022/01/09 03:46:42;;;;;;;15.43;8.60;;;5.00;99.90;;;;;;5108055;28;20043;-59
2022/01/09 03:49:08;;;;;;;14.90;8.37;;;5.00;99.90;;;;;;5106416;28;20032;-58
2022/01/09 03:51:37;;;;;;;18.13;9.30;;;5.10;99.90;;;;;;5091923;28;20048;-58
2022/01/09 03:54:04;;;;;;;17.45;9.23;;;5.10;99.90;;;;;;5091231;28;20044;-59
2022/01/09 03:56:30;;;;;;;19.27;9.75;;;5.10;99.90;;;;;;5104603;28;20044;-58
2022/01/09 03:58:55;;;;;;;16.57;9.40;;;5.10;99.90;;;;;;5102668;28;20044;-58
2022/01/09 04:01:21;;;;;;;23.80;10.07;;;5.20;99.90;;;;;;5105538;28;20031;-59
2022/01/09 04:03:47;;;;;;;23.60;10.50;;;5.20;99.90;;;;;;5101903;28;20040;-59
2022/01/09 04:06:12;;;;;;;19.83;9.60;;;5.20;99.90;;;;;;5090366;28;20075;-58
2022/01/09 04:08:38;;;;;;;21.97;9.03;;;5.20;99.90;;;;;;5090186;28;20126;-58
2022/01/09 04:11:06;;;;;;;24.60;8.30;;;5.20;99.90;;;;;;5090415;28;20719;-57
2022/01/09 04:13:31;;;;;;;39.42;9.30;;;5.30;99.90;;;;;;5090506;28;20447;-58
2022/01/09 04:15:58;;;;;;;34.43;7.87;;;5.40;99.90;;;;;;5090622;28;20051;-58
2022/01/09 04:18:24;;;;;;;47.70;11.10;;;5.40;99.90;;;;;;5090111;28;20561;-59
2022/01/09 04:20:51;;;;;;;39.50;7.07;;;5.40;99.90;;;;;;5090432;28;20119;-58
2022/01/09 04:23:19;;;;;;;37.47;5.65;;;5.50;99.90;;;;;;5090007;28;20485;-57
2022/01/09 04:25:45;;;;;;;30.42;5.45;;;5.50;99.90;;;;;;5089678;28;20390;-58
2022/01/09 04:28:11;;;;;;;;;;;5.60;99.90;;;;;;5090554;28;20580;-58
2022/01/09 04:30:37;;;;;;;56.85;8.73;;;5.60;99.90;;;;;;5090117;28;20273;-58
2022/01/09 04:33:03;;;;;;;39.58;6.72;;;5.70;99.90;;;;;;5078743;28;20087;-58
2022/01/09 04:35:29;;;;;;;47.00;5.50;;;5.70;99.90;;;;;;5099958;28;20040;-59
2022/01/09 04:37:55;;;;;;;50.30;7.22;;;5.70;99.90;;;;;;5097707;28;20051;-59
2022/01/09 04:40:21;;;;;;;50.45;5.40;;;5.80;99.90;;;;;;5103892;28;20492;-58
2022/01/09 04:42:57;;;;;;;43.67;6.38;;;5.80;99.90;;;;;;5080401;28;20480;-58
2022/01/09 04:45:25;;;;;;;33.67;5.30;;;5.90;99.90;;;;;;5091179;28;20044;-59
2022/01/09 04:47:52;;;;;;;43.55;5.47;;;5.80;99.90;;;;;;5103354;28;20032;-58
2022/01/09 04:50:24;;;;;;;51.67;6.78;;;5.90;99.90;;;;;;5099727;28;20027;-57
2022/01/09 04:52:58;;;;;;;51.88;5.53;;;5.90;99.90;;;;;;5098642;28;20044;-58
2022/01/09 04:55:24;;;;;;;38.70;8.43;;;5.90;99.90;;;;;;5080781;28;20050;-58
2022/01/09 04:57:50;;;;;;;46.53;6.05;;;5.90;99.90;;;;;;5097410;28;20119;-58
2022/01/09 05:00:15;;;;;;;35.93;5.57;;;5.90;99.90;;;;;;5102579;28;20140;-58
2022/01/09 05:02:41;;;;;;;32.57;5.03;;;5.90;99.90;;;;;;5097447;28;20172;-58
2022/01/09 05:05:11;;;;;;;35.13;4.78;;;5.90;99.90;;;;;;5099991;28;20036;-58
2022/01/09 05:07:37;;;;;;;41.67;5.22;;;5.90;99.90;;;;;;5089534;28;20127;-58
2022/01/09 05:10:04;;;;;;;28.50;4.20;;;5.90;99.90;;;;;;5090288;28;20028;-57
2022/01/09 05:12:30;;;;;;;31.25;4.93;;;6.00;99.90;;;;;;5090094;28;20050;-58
2022/01/09 05:14:55;;;;;;;45.87;5.20;;;6.00;99.90;;;;;;5073887;28;20131;-58
2022/01/09 05:17:21;;;;;;;43.70;5.20;;;5.90;99.90;;;;;;5095709;28;20036;-58
2022/01/09 05:19:47;;;;;;;28.60;3.83;;;6.00;99.90;;;;;;5102521;28;20032;-56
2022/01/09 05:22:13;;;;;;;37.38;3.80;;;5.90;99.90;;;;;;5109801;28;20044;-54
2022/01/09 05:24:39;;;;;;;29.10;4.93;;;5.90;99.90;;;;;;5104611;28;20038;-58
2022/01/09 05:27:05;;;;;;;31.50;4.23;;;5.90;99.90;;;;;;5093500;28;20493;-58
2022/01/09 05:29:30;;;;;;;24.02;3.33;;;6.00;99.90;;;;;;5095648;28;20032;-58
2022/01/09 05:31:56;;;;;;;23.37;6.37;;;6.00;99.90;;;;;;5091009;28;20040;-56
2022/01/09 05:34:22;;;;;;;35.50;3.80;;;6.00;99.90;;;;;;5105965;28;20278;-58
2022/01/09 05:36:47;;;;;;;29.90;3.17;;;5.90;99.90;;;;;;5109104;28;20078;-53
2022/01/09 05:39:13;;;;;;;27.00;3.83;;;5.90;99.90;;;;;;5111656;28;20580;-56
2022/01/09 05:41:41;;;;;;;19.27;3.15;;;6.00;99.90;;;;;;5098236;28;20036;-56
2022/01/09 05:44:07;;;;;;;27.20;4.15;;;6.00;99.90;;;;;;5087573;28;20063;-57
2022/01/09 05:46:33;;;;;;;17.20;3.20;;;5.90;99.90;;;;;;5111639;28;20035;-55
2022/01/09 05:48:58;;;;;;;28.70;3.33;;;5.90;99.90;;;;;;5113634;28;20038;-57
2022/01/09 05:51:24;;;;;;;20.10;2.23;;;5.90;99.90;;;;;;5098152;28;20039;-57
2022/01/09 05:53:49;;;;;;;20.05;2.13;;;5.90;99.90;;;;;;5075241;28;20500;-58
2022/01/09 05:56:15;;;;;;;17.47;2.93;;;5.90;99.90;;;;;;5107995;28;20032;-55
2022/01/09 05:58:40;;;;;;;27.43;3.10;;;5.90;99.90;;;;;;5102961;28;20032;-58
2022/01/09 06:01:07;;;;;;;22.13;2.17;;;5.90;99.90;;;;;;5103970;28;20096;-58
2022/01/09 06:03:33;;;;;;;17.08;1.40;;;5.90;99.90;;;;;;5075578;28;20097;-58
2022/01/09 06:05:59;;;;;;;17.67;2.35;;;5.80;99.90;;;;;;5091989;28;20044;-59
2022/01/09 06:08:25;;;;;;;14.57;2.47;;;5.80;99.90;;;;;;5092770;28;20043;-58
2022/01/09 06:10:51;;;;;;;18.73;2.22;;;5.80;99.90;;;;;;5092591;28;20035;-58
2022/01/09 06:13:16;;;;;;;25.25;3.60;;;5.80;99.90;;;;;;5092907;28;20118;-58
2022/01/09 06:15:42;;;;;;;16.53;2.17;;;5.70;99.90;;;;;;5092215;28;20412;-57
2022/01/09 06:18:07;;;;;;;22.37;3.03;;;5.70;99.90;;;;;;5092265;28;20039;-57
2022/01/09 06:20:33;;;;;;;14.90;2.43;;;5.60;99.90;;;;;;5092521;28;20036;-57
2022/01/09 06:22:59;;;;;;;16.47;3.07;;;5.70;99.90;;;;;;5092638;28;20071;-58
2022/01/09 06:25:25;;;;;;;23.57;3.53;;;5.60;99.90;;;;;;5092763;28;20315;-57
2022/01/09 06:27:50;;;;;;;19.83;3.43;;;5.60;99.90;;;;;;5074647;28;20044;-58
2022/01/09 06:30:16;;;;;;;16.77;2.30;;;5.60;99.90;;;;;;5092440;28;20036;-59
2022/01/09 06:32:42;;;;;;;20.48;2.45;;;5.60;99.90;;;;;;5102790;28;20119;-58
2022/01/09 06:35:10;;;;;;;18.20;2.80;;;5.60;99.90;;;;;;5101446;28;20046;-56
2022/01/09 06:37:35;;;;;;;24.80;2.70;;;5.60;99.90;;;;;;5087098;28;20042;-59
2022/01/09 06:40:02;;;;;;;21.40;3.27;;;5.60;99.90;;;;;;5095113;28;20314;-59
2022/01/09 06:42:28;;;;;;;23.50;1.75;;;5.50;99.90;;;;;;5112067;28;20043;-58
2022/01/09 06:44:53;;;;;;;8.73;2.10;;;5.60;99.90;;;;;;5105121;28;20036;-58
2022/01/09 06:47:19;;;;;;;15.53;2.70;;;5.60;99.90;;;;;;5107567;28;20130;-58
2022/01/09 06:49:44;;;;;;;18.10;2.07;;;5.60;99.90;;;;;;5092645;28;20039;-58
2022/01/09 06:52:10;;;;;;;11.20;2.27;;;5.60;99.90;;;;;;5084545;28;20036;-58
2022/01/09 06:54:36;;;;;;;22.20;2.53;;;5.50;99.90;;;;;;5106351;28;20408;-59
2022/01/09 06:57:01;;;;;;;16.93;2.20;;;5.50;99.90;;;;;;5095660;28;20036;-59
2022/01/09 06:59:27;;;;;;;22.13;1.43;;;5.50;99.90;;;;;;5093715;28;20131;-58
2022/01/09 07:01:52;;;;;;;10.97;2.23;;;5.50;99.90;;;;;;5099854;28;20160;-59
2022/01/09 07:04:18;;;;;;;23.33;3.43;;;5.50;99.90;;;;;;5102482;28;20071;-57
2022/01/09 07:06:44;;;;;;;19.77;2.88;;;5.50;99.90;;;;;;5092737;28;20523;-58
2022/01/09 07:09:09;;;;;;;17.13;1.73;;;5.50;99.90;;;;;;5099877;28;20036;-58
2022/01/09 07:11:35;;;;;;;11.53;1.20;;;5.50;99.90;;;;;;5099402;28;20036;-58
2022/01/09 07:14:01;;;;;;;14.37;1.07;;;5.50;99.90;;;;;;5102384;28;20043;-59
2022/01/09 07:16:27;;;;;;;19.17;1.87;;;5.40;99.90;;;;;;5104880;28;20070;-56
2022/01/09 07:18:53;;;;;;;12.88;1.55;;;5.40;99.90;;;;;;5111385;28;20048;-57
2022/01/09 07:21:19;;;;;;;9.17;1.10;;;5.40;99.90;;;;;;5100699;28;20046;-58
2022/01/09 07:23:44;;;;;;;10.27;1.73;;;5.30;99.90;;;;;;5104566;28;20036;-58
2022/01/09 07:26:10;;;;;;;11.77;1.07;;;5.30;99.90;;;;;;5077697;28;20067;-56
2022/01/09 07:28:36;;;;;;;10.38;1.10;;;5.30;99.90;;;;;;5073215;28;20036;-58
2022/01/09 07:31:01;;;;;;;8.73;1.80;;;5.30;99.90;;;;;;5105600;28;20642;-59
2022/01/09 07:33:28;;;;;;;14.47;2.00;;;5.30;99.90;;;;;;5111348;28;20539;-58
2022/01/09 07:35:54;;;;;;;16.05;1.77;;;5.30;99.90;;;;;;5097174;28;20040;-61
2022/01/09 07:38:20;;;;;;;8.53;1.20;;;5.30;99.90;;;;;;5107799;28;20035;-60
2022/01/09 07:40:47;;;;;;;14.40;2.23;;;5.30;99.90;;;;;;5097395;28;20042;-56
2022/01/09 07:43:12;;;;;;;5.30;0.65;;;5.20;99.90;;;;;;5106867;28;20404;-58
2022/01/09 07:45:39;;;;;;;14.85;1.77;;;5.20;99.90;;;;;;5100081;28;20032;-58
2022/01/09 07:48:06;;;;;;;15.52;1.70;;;5.20;99.90;;;;;;5108889;28;20097;-58
2022/01/09 07:50:32;;;;;;;13.48;1.88;;;5.20;99.90;;;;;;5103093;28;20031;-58
2022/01/09 07:52:58;;;;;;;7.32;0.98;;;5.10;99.90;;;;;;5098442;28;20036;-58
2022/01/09 07:55:23;;;;;;;7.60;0.88;;;5.10;99.90;;;;;;5095252;28;20028;-59
2022/01/09 07:57:50;;;;;;;13.17;1.37;;;5.10;99.90;;;;;;5094845;28;20050;-58
2022/01/09 08:00:17;;;;;;;10.70;2.78;;;5.10;99.90;;;;;;5104398;28;20024;-58
2022/01/09 08:02:43;;;;;;;8.57;1.13;;;5.10;99.90;;;;;;5090702;28;20055;-59
2022/01/09 08:05:11;;;;;;;13.70;2.40;;;5.10;99.90;;;;;;5090490;28;20028;-58
2022/01/09 08:07:38;;;;;;;15.25;1.30;;;5.10;99.90;;;;;;5072094;28;20101;-58
2022/01/09 08:10:04;;;;;;;9.52;1.13;;;5.10;99.90;;;;;;5090448;28;20039;-58
2022/01/09 08:12:30;;;;;;;7.00;0.90;;;5.10;99.90;;;;;;5090507;28;20055;-58
2022/01/09 08:14:55;;;;;;;11.83;2.50;;;5.10;99.90;;;;;;5089992;28;20047;-59
2022/01/09 08:17:21;;;;;;;13.53;1.27;;;5.10;99.90;;;;;;5090583;28;20036;-58
2022/01/09 08:19:47;;;;;;;12.13;1.13;;;5.10;99.90;;;;;;5090463;28;20032;-58
2022/01/09 08:22:13;;;;;;;15.73;1.33;;;5.20;99.90;;;;;;5094359;28;20081;-58
2022/01/09 08:24:39;;;;;;;7.63;1.17;;;5.10;99.90;;;;;;5089749;28;20408;-57
2022/01/09 08:27:05;;;;;;;5.90;1.05;;;5.20;99.90;;;;;;5090633;28;20040;-59
2022/01/09 08:29:31;;;;;;;9.50;1.25;;;5.20;99.90;;;;;;5071521;28;20031;-58
2022/01/09 08:31:57;;;;;;;7.17;0.70;;;5.20;99.90;;;;;;5090813;28;20039;-58
2022/01/09 08:34:22;;;;;;;4.97;0.60;;;5.20;99.90;;;;;;5090103;28;20093;-58
2022/01/09 08:36:48;;;;;;;12.87;1.17;;;5.20;99.90;;;;;;5094674;28;20262;-56
2022/01/09 08:39:14;;;;;;;7.83;0.80;;;5.20;99.90;;;;;;5095823;28;20104;-56
2022/01/09 08:41:40;;;;;;;6.53;1.33;;;5.20;99.90;;;;;;5073796;28;20087;-58
2022/01/09 08:44:06;;;;;;;4.68;0.55;;;5.20;99.90;;;;;;5069634;28;20481;-57
2022/01/09 08:46:34;;;;;;;7.70;1.65;;;5.20;99.90;;;;;;5069569;28;20044;-54
2022/01/09 08:49:01;;;;;;;12.15;1.70;;;5.20;99.90;;;;;;5069395;28;20040;-55
2022/01/09 08:51:28;;;;;;;10.23;1.05;;;5.20;99.90;;;;;;5069731;28;20040;-57
2022/01/09 08:53:54;;;;;;;13.63;1.13;;;5.20;99.90;;;;;;5051895;28;20094;-58
2022/01/09 08:56:22;;;;;;;5.45;0.60;;;5.20;99.90;;;;;;5069450;28;20047;-55
2022/01/09 08:58:48;;;;;;;8.80;0.95;;;5.30;99.90;;;;;;5069389;28;20037;-56
2022/01/09 09:01:14;;;;;;;10.88;0.95;;;5.30;99.90;;;;;;5069842;28;20585;-58
2022/01/09 09:03:42;;;;;;;7.25;1.02;;;5.30;99.90;;;;;;5051763;28;20052;-58
2022/01/09 09:06:13;;;;;;;5.88;0.77;;;5.30;99.90;;;;;;5067675;28;20101;-56
2022/01/09 09:08:40;;;;;;;6.40;0.70;;;5.20;99.90;;;;;;5070082;28;20107;-58
2022/01/09 09:11:07;;;;;;;7.75;1.33;;;5.30;99.90;;;;;;5072634;28;20036;-57
2022/01/09 09:13:33;;;;;;;12.20;1.10;;;5.30;99.90;;;;;;5072929;28;20051;-59
2022/01/09 09:16:00;;;;;;;10.05;1.30;;;5.30;99.90;;;;;;5071942;28;20040;-59
2022/01/09 09:18:26;;;;;;;13.15;1.02;;;5.30;99.90;;;;;;5073288;28;20075;-57
2022/01/09 09:20:52;;;;;;;13.27;0.80;;;5.30;99.90;;;;;;5073071;28;20036;-59
2022/01/09 09:23:18;;;;;;;9.67;1.07;;;5.40;99.90;;;;;;5072619;28;20044;-54
2022/01/09 09:25:43;;;;;;;8.38;0.63;;;5.40;99.90;;;;;;5072405;28;20806;-58
2022/01/09 09:28:09;;;;;;;9.87;2.27;;;5.40;99.90;;;;;;5072236;28;20819;-57
2022/01/09 09:30:35;;;;;;;13.00;1.03;;;5.40;99.90;;;;;;5099748;28;20040;-56
2022/01/09 09:33:02;;;;;;;6.78;0.85;;;5.40;99.90;;;;;;5104490;28;20046;-54
2022/01/09 09:35:28;;;;;;;10.50;1.35;;;5.40;99.90;;;;;;5103632;28;20089;-57
2022/01/09 09:37:53;;;;;;;12.00;0.77;;;5.40;99.90;;;;;;5089696;28;20039;-58
2022/01/09 09:40:19;;;;;;;10.37;1.37;;;5.40;99.90;;;;;;5100829;28;20040;-58
2022/01/09 09:42:45;;;;;;;9.00;1.23;;;5.40;99.90;;;;;;5109902;28;20040;-57
2022/01/09 09:45:11;;;;;;;10.87;2.93;;;5.40;99.90;;;;;;5081968;28;21203;-57
2022/01/09 09:47:38;;;;;;;17.35;2.08;;;5.40;99.90;;;;;;5102571;28;20093;-58
2022/01/09 09:50:07;;;;;;;13.82;2.63;;;5.40;99.90;;;;;;5103206;28;20046;-59
2022/01/09 09:52:32;;;;;;;15.38;2.20;;;5.50;99.90;;;;;;5095409;28;20105;-58
2022/01/09 09:54:58;;;;;;;10.50;1.43;;;5.50;99.90;;;;;;5099545;28;20501;-58
2022/01/09 09:57:24;;;;;;;13.30;2.13;;;5.50;99.90;;;;;;5086411;28;20103;-58
2022/01/09 09:59:59;;;;;;;11.05;2.00;;;5.50;99.90;;;;;;5080436;28;20531;-58
2022/01/09 10:02:25;;;;;;;19.95;2.28;;;5.60;99.90;;;;;;5103694;28;20036;-57
2022/01/09 10:05:04;;;;;;;24.10;3.17;;;5.60;99.90;;;;;;5102065;28;20031;-57
2022/01/09 10:07:30;;;;;;;14.82;1.75;;;5.60;99.90;;;;;;5098333;28;20062;-58
2022/01/09 10:09:58;;;;;;;11.27;2.10;;;5.60;99.90;;;;;;5104247;28;20028;-60
2022/01/09 10:12:32;;;;;;;17.85;2.92;;;5.60;99.90;;;;;;5084850;28;20036;-58
2022/01/09 10:15:00;;;;;;;19.08;2.97;;;5.60;99.90;;;;;;5098304;28;20723;-59
2022/01/09 10:17:27;;;;;;;19.85;2.45;;;5.70;99.90;;;;;;5099537;28;20493;-57
2022/01/09 10:20:03;;;;;;;11.77;2.75;;;5.60;99.90;;;;;;5101251;28;20110;-58
2022/01/09 10:22:40;;;;;;;19.45;2.83;;;5.70;99.90;;;;;;5086809;28;20041;-58
2022/01/09 10:25:37;;;;;;;17.47;2.43;;;5.70;99.90;;;;;;5064026;28;20033;-58
2022/01/09 10:28:12;;;;;;;11.32;1.42;;;5.70;99.90;;;;;;5074261;28;20032;-55
2022/01/09 10:30:42;;;;;;;15.02;1.88;;;5.70;99.90;;;;;;5072967;28;20356;-55
2022/01/09 10:33:12;;;;;;;9.70;1.83;;;5.70;99.90;;;;;;5079495;28;20048;-54
2022/01/09 10:35:40;;;;;;;13.00;2.45;;;5.70;99.90;;;;;;5074067;28;20572;-54
2022/01/09 10:38:12;;;;;;;11.23;2.28;;;5.70;99.90;;;;;;5072792;28;20032;-57
2022/01/09 10:40:40;;;;;;;12.43;2.08;;;5.80;99.90;;;;;;5086921;28;20114;-56
2022/01/09 10:43:14;;;;;;;15.00;1.70;;;5.90;99.90;;;;;;5083963;28;20064;-56
2022/01/09 10:45:43;;;;;;;11.15;1.70;;;6.00;99.90;;;;;;5072389;28;20123;-55
2022/01/09 10:48:12;;;;;;;19.88;4.38;;;6.30;99.90;;;;;;5059187;28;20392;-54
2022/01/09 10:50:41;;;;;;;27.70;4.22;;;6.60;99.90;;;;;;5089482;28;20044;-57
2022/01/09 10:53:20;;;;;;;14.70;2.33;;;6.80;99.90;;;;;;5085195;28;20097;-57
2022/01/09 10:56:00;;;;;;;14.70;1.88;;;6.90;99.90;;;;;;5079064;28;20036;-57
2022/01/09 10:58:27;;;;;;;13.45;1.63;;;6.90;99.90;;;;;;5082791;28;20047;-57
2022/01/09 11:01:07;;;;;;;14.93;2.70;;;6.90;99.90;;;;;;5088854;28;20036;-56
2022/01/09 11:03:33;;;;;;;13.77;1.48;;;6.70;99.90;;;;;;5072837;28;20404;-53
2022/01/09 11:06:00;;;;;;;11.95;1.48;;;6.70;99.90;;;;;;5075750;28;20144;-56
2022/01/09 11:08:28;;;;;;;14.32;1.67;;;6.60;99.90;;;;;;5071157;28;20134;-57
2022/01/09 11:10:54;;;;;;;9.35;1.10;;;6.60;99.90;;;;;;5070359;28;20040;-55
2022/01/09 11:13:21;;;;;;;17.10;2.58;;;6.50;99.90;;;;;;5070523;28;20047;-57
2022/01/09 11:16:33;;;;;;;26.02;3.33;;;6.50;99.90;;;;;;5070414;28;20044;-56
2022/01/09 11:18:34;;;;;;;;;;;6.60;99.90;;;;;;5069226;28;20055;-56
2022/01/09 11:21:00;;;;;;;11.90;2.38;;;7.00;99.90;;;;;;5070654;28;19975;-55
2022/01/09 11:23:41;;;;;;;9.67;1.73;;;7.40;99.90;;;;;;5069912;28;20102;-55
2022/01/09 11:26:11;;;;;;;15.50;1.90;;;7.60;99.90;;;;;;5077663;28;20046;-58
2022/01/09 11:28:38;;;;;;;20.67;1.20;;;7.80;99.90;;;;;;5069788;28;20028;-57
2022/01/09 11:31:35;;;;;;;13.75;3.33;;;7.90;99.90;;;;;;5074479;28;20115;-57
2022/01/09 11:34:13;;;;;;;13.38;2.35;;;7.90;99.90;;;;;;5080227;28;20040;-58
2022/01/09 11:37:12;;;;;;;24.98;2.88;;;7.80;99.90;;;;;;5075839;28;20040;-58
2022/01/09 11:39:38;;;;;;;9.13;2.38;;;7.90;99.90;;;;;;5080136;28;20492;-58
2022/01/09 11:42:08;;;;;;;16.47;1.63;;;7.90;99.90;;;;;;5078172;28;20146;-58
2022/01/09 11:44:34;;;;;;;13.35;2.03;;;8.00;99.90;;;;;;5076074;28;20040;-58
2022/01/09 11:47:01;;;;;;;16.40;1.65;;;8.00;99.90;;;;;;5072887;28;20047;-58
2022/01/09 11:49:29;;;;;;;16.75;1.85;;;8.10;99.90;;;;;;5081317;28;20088;-57
2022/01/09 11:51:57;;;;;;;15.88;2.33;;;8.10;99.90;;;;;;5076235;28;20052;-58
2022/01/09 11:54:24;;;;;;;10.07;1.85;;;8.20;99.90;;;;;;5057587;28;20581;-57
2022/01/09 11:57:05;;;;;;;13.27;3.22;;;8.20;99.90;;;;;;5081717;28;20040;-58
2022/01/09 11:59:40;;;;;;;12.63;1.35;;;8.10;99.90;;;;;;5057295;28;20035;-57
2022/01/09 12:02:12;;;;;;;17.13;2.03;;;8.00;99.90;;;;;;5079715;28;20099;-56
2022/01/09 12:04:40;;;;;;;20.45;2.67;;;7.70;99.90;;;;;;5096736;28;20039;-58
2022/01/09 12:07:16;;;;;;;9.82;1.38;;;7.50;99.90;;;;;;5098430;28;20032;-58
2022/01/09 12:09:51;;;;;;;9.50;1.42;;;7.50;99.90;;;;;;5086704;28;20040;-56
2022/01/09 12:12:32;;;;;;;12.00;1.85;;;7.60;99.90;;;;;;5102913;28;20042;-58
2022/01/09 12:15:03;;;;;;;14.23;2.47;;;7.60;99.90;;;;;;5092891;28;20040;-55
2022/01/09 12:17:38;;;;;;;11.70;1.23;;;7.50;99.90;;;;;;5082299;28;20048;-57
2022/01/09 12:20:13;;;;;;;10.02;1.65;;;7.50;99.90;;;;;;5095785;28;20044;-58
2022/01/09 12:22:51;;;;;;;16.92;1.90;;;7.50;99.90;;;;;;5084122;28;20048;-56
2022/01/09 12:25:22;;;;;;;13.40;1.88;;;7.50;99.90;;;;;;5103131;28;20051;-56
2022/01/09 12:27:59;;;;;;;15.18;1.95;;;7.70;99.90;;;;;;5100412;28;20408;-56
2022/01/09 12:30:33;;;;;;;13.23;1.75;;;8.00;99.90;;;;;;5099025;28;20059;-56
2022/01/09 12:33:00;;;;;;;15.15;1.35;;;8.60;99.90;;;;;;5102115;28;20633;-59
2022/01/09 12:35:26;;;;;;;18.35;1.40;;;9.00;99.90;;;;;;5093016;28;20043;-60
2022/01/09 12:37:54;;;;;;;12.57;1.77;;;9.20;99.90;;;;;;5107338;28;20044;-60
2022/01/09 12:40:22;;;;;;;11.93;1.52;;;9.50;99.90;;;;;;5105962;28;20043;-60
2022/01/09 12:42:53;;;;;;;14.50;1.92;;;9.90;99.90;;;;;;5100799;28;20036;-60
2022/01/09 12:45:34;;;;;;;11.27;1.50;;;10.30;99.90;;;;;;5077670;28;20046;-61
2022/01/09 12:48:03;;;;;;;7.28;1.38;;;10.70;99.90;;;;;;5082604;28;20044;-60
2022/01/09 12:50:39;;;;;;;14.48;2.13;;;11.10;99.90;;;;;;5082331;28;20047;-62
2022/01/09 12:53:21;;;;;;;14.02;1.40;;;11.30;99.90;;;;;;5089897;28;20390;-61
2022/01/09 12:55:58;;;;;;;11.30;2.63;;;11.30;99.90;;;;;;5079439;28;20085;-61